Time;durP1;ratioP1;P1;durP2;ratioP2;P2;SDS_P1;SDS_P2;PMS_P1;PMS_P2;Temp;Humidity;BMP_temperature;BMP_pressure;BME280_temperature;BME280_humidity;BME280_pressure;Samples;Min_cycle;Max_cycle;Signal;HPM_P1;HPM_P2
2022/05/08 00:00:49;;;;;;;17.95;11.70;;;;;;;9.19;70.23;101860.78;1701356;83;21389;-86
2022/05/08 00:03:10;;;;;;;18.40;12.43;;;;;;;9.15;70.26;101863.67;1734923;81;21177;-86
2022/05/08 00:05:40;;;;;;;16.32;11.83;;;;;;;9.12;70.32;101857.37;1758037;81;21113;-86
2022/05/08 00:08:07;;;;;;;16.45;11.30;;;;;;;9.09;70.44;101859.87;1757398;81;21822;-87
2022/05/08 00:10:34;;;;;;;19.20;11.95;;;;;;;9.05;70.50;101856.61;1732810;81;21819;-85
2022/05/08 00:13:01;;;;;;;15.65;10.70;;;;;;;9.03;70.63;101859.16;1732987;81;21077;-87
2022/05/08 00:15:28;;;;;;;14.05;10.20;;;;;;;9.02;70.77;101857.34;1751473;81;21928;-87
2022/05/08 00:17:55;;;;;;;11.75;9.35;;;;;;;9.00;70.87;101852.85;1749916;81;21105;-85
2022/05/08 00:20:21;;;;;;;13.15;9.55;;;;;;;9.00;70.99;101862.05;1686665;82;21055;-85
2022/05/08 00:22:48;;;;;;;12.50;8.85;;;;;;;8.98;71.06;101852.77;1745447;81;22532;-85
2022/05/08 00:25:15;;;;;;;11.93;8.93;;;;;;;8.99;71.19;101861.54;1745190;82;21125;-84
2022/05/08 00:27:42;;;;;;;12.65;8.78;;;;;;;8.97;71.27;101860.14;1745184;82;21078;-85
2022/05/08 00:30:11;;;;;;;10.00;8.15;;;;;;;8.95;71.39;101858.78;1744634;82;21067;-85
2022/05/08 00:32:39;;;;;;;10.32;7.87;;;;;;;8.95;71.48;101857.86;1726020;82;21074;-85
2022/05/08 00:35:09;;;;;;;12.70;8.20;;;;;;;8.96;71.63;101858.36;1726226;82;21782;-86
2022/05/08 00:37:38;;;;;;;10.53;7.90;;;;;;;8.97;71.66;101857.52;1736063;82;21470;-85
2022/05/08 00:40:09;;;;;;;11.65;7.62;;;;;;;8.97;71.72;101858.83;1715795;83;21315;-85
2022/05/08 00:42:38;;;;;;;10.60;7.97;;;;;;;8.98;71.77;101860.65;1729678;82;21274;-86
2022/05/08 00:45:06;;;;;;;10.05;8.20;;;;;;;8.97;71.90;101852.27;1738064;82;21593;-86
2022/05/08 00:47:32;;;;;;;11.75;7.53;;;;;;;8.98;71.98;101857.13;1743316;81;21789;-84
2022/05/08 00:50:00;;;;;;;11.80;8.35;;;;;;;8.99;72.03;101856.28;1715617;83;21548;-84
2022/05/08 00:52:29;;;;;;;10.32;7.45;;;;;;;9.00;72.09;101855.48;1721323;82;21144;-85
2022/05/08 00:54:56;;;;;;;12.78;8.33;;;;;;;8.98;72.23;101846.20;1732233;82;21047;-85
2022/05/08 00:57:23;;;;;;;12.98;8.30;;;;;;;9.01;72.29;101850.69;1729438;82;21044;-85
2022/05/08 00:59:50;;;;;;;10.65;8.08;;;;;;;9.01;72.36;101852.93;1736447;82;21775;-86
2022/05/08 01:02:18;;;;;;;13.22;8.80;;;;;;;9.02;72.39;101857.34;1680948;83;21024;-85
2022/05/08 01:04:45;;;;;;;8.88;7.45;;;;;;;9.04;72.49;101857.42;1734748;82;21046;-86
2022/05/08 01:07:12;;;;;;;9.70;7.78;;;;;;;9.06;72.53;101863.64;1739275;82;21077;-86
2022/05/08 01:09:39;;;;;;;11.93;8.75;;;;;;;9.08;72.57;101858.05;1725380;82;21050;-86
2022/05/08 01:12:08;;;;;;;10.60;8.23;;;;;;;9.08;72.66;101858.94;1737936;82;22551;-86
2022/05/08 01:14:35;;;;;;;14.43;8.60;;;;;;;9.10;72.71;101860.34;1702726;83;21094;-85
2022/05/08 01:17:02;;;;;;;12.63;9.08;;;;;;;9.13;72.74;101860.08;1722041;82;21020;-86
2022/05/08 01:19:28;;;;;;;11.55;8.18;;;;;;;9.14;72.72;101860.97;1729839;82;21105;-85
2022/05/08 01:21:55;;;;;;;10.93;8.20;;;;;;;9.13;72.71;101856.14;1724892;82;21102;-85
2022/05/08 01:24:22;;;;;;;12.15;8.30;;;;;;;9.14;72.72;101857.95;1737598;82;21772;-86
2022/05/08 01:26:50;;;;;;;12.00;8.30;;;;;;;9.14;72.76;101858.34;1738221;82;21063;-87
2022/05/08 01:29:17;;;;;;;11.53;9.20;;;;;;;9.14;72.78;101862.28;1721473;82;21070;-86
2022/05/08 01:31:44;;;;;;;14.87;8.88;;;;;;;9.12;72.77;101868.80;1727549;82;21611;-86
2022/05/08 01:34:11;;;;;;;10.93;8.08;;;;;;;9.10;72.81;101867.83;1718992;82;21785;-86
2022/05/08 01:36:38;;;;;;;13.48;9.50;;;;;;;9.10;72.94;101873.47;1726453;82;21765;-86
2022/05/08 01:39:04;;;;;;;11.15;8.90;;;;;;;9.11;73.02;101863.47;1731990;82;21055;-85
2022/05/08 01:41:31;;;;;;;11.03;9.10;;;;;;;9.11;73.17;101866.09;1716015;83;21101;-85
2022/05/08 01:43:58;;;;;;;15.25;9.08;;;;;;;9.11;73.18;101863.47;1699698;83;21549;-87
2022/05/08 01:46:25;;;;;;;15.03;8.45;;;;;;;9.11;73.21;101863.47;1709382;83;21088;-86
2022/05/08 01:48:51;;;;;;;12.07;8.83;;;;;;;9.11;73.22;101874.86;1721382;82;21824;-85
2022/05/08 01:51:18;;;;;;;11.70;9.30;;;;;;;9.11;73.33;101872.23;1715167;82;21135;-86
2022/05/08 01:53:45;;;;;;;13.35;9.43;;;;;;;9.10;73.40;101866.52;1740972;81;21067;-86
2022/05/08 01:56:14;;;;;;;15.20;9.25;;;;;;;9.09;73.41;101868.64;1745261;82;21023;-85
2022/05/08 01:58:41;;;;;;;10.78;9.30;;;;;;;9.08;73.48;101867.24;1706660;82;21119;-85
2022/05/08 02:01:08;;;;;;;12.85;9.45;;;;;;;8.99;73.45;101856.28;1639332;87;23828;-86
2022/05/08 02:03:35;;;;;;;12.30;8.95;;;;;;;9.02;73.48;101866.53;1688760;84;21044;-86
2022/05/08 02:06:02;;;;;;;11.80;9.08;;;;;;;8.95;73.43;101873.23;1681511;84;21329;-85
2022/05/08 02:08:30;;;;;;;11.40;8.60;;;;;;;8.90;73.43;101872.09;1682956;84;21115;-85
2022/05/08 02:10:57;;;;;;;11.30;9.13;;;;;;;8.85;73.47;101874.00;1693429;84;21086;-86
2022/05/08 02:13:25;;;;;;;12.70;8.60;;;;;;;8.80;73.53;101878.11;1685849;84;21795;-85
2022/05/08 02:15:51;;;;;;;15.03;9.33;;;;;;;8.74;73.58;101880.91;1679692;84;21317;-85
2022/05/08 02:18:18;;;;;;;12.05;9.58;;;;;;;8.69;73.67;101881.11;1690056;84;21093;-86
2022/05/08 02:20:45;;;;;;;15.95;9.68;;;;;;;8.65;73.77;101884.41;1680219;84;21082;-85
2022/05/08 02:23:12;;;;;;;13.95;9.55;;;;;;;8.63;73.86;101886.02;1684628;84;21112;-85
2022/05/08 02:25:39;;;;;;;14.13;9.30;;;;;;;8.59;73.93;101881.44;1679427;84;23022;-85
2022/05/08 02:28:06;;;;;;;11.50;9.53;;;;;;;8.46;73.98;101865.89;1677507;84;21095;-85
2022/05/08 02:30:39;;;;;;;12.00;9.93;;;;;;;8.52;74.02;101882.88;1672164;84;21101;-86
2022/05/08 02:33:08;;;;;;;13.70;9.58;;;;;;;8.50;74.08;101880.97;1662177;84;21131;-85
2022/05/08 02:35:35;;;;;;;12.80;9.28;;;;;;;8.48;74.22;101879.99;1690479;84;21661;-86
2022/05/08 02:38:02;;;;;;;12.03;9.55;;;;;;;8.46;74.29;101881.22;1661269;84;21691;-87
2022/05/08 02:40:29;;;;;;;15.08;10.13;;;;;;;8.45;74.28;101879.86;1664045;84;21100;-86
2022/05/08 02:42:55;;;;;;;12.82;9.65;;;;;;;8.42;74.31;101873.13;1691656;84;21638;-85
2022/05/08 02:45:23;;;;;;;14.90;10.13;;;;;;;8.40;74.40;101874.31;1691418;84;21644;-84
2022/05/08 02:47:51;;;;;;;13.40;9.53;;;;;;;8.38;74.42;101874.23;1662497;84;21106;-85
2022/05/08 02:50:19;;;;;;;17.60;9.83;;;;;;;8.36;74.42;101874.98;1679799;83;21715;-87
2022/05/08 02:52:47;;;;;;;14.38;9.53;;;;;;;8.35;74.52;101876.72;1679881;84;21662;-87
2022/05/08 03:00:46;;;;;;;12.78;9.63;;;;;;;8.31;74.50;101883.91;1704863;84;21165;-85
2022/05/08 03:03:14;;;;;;;15.08;9.33;;;;;;;8.31;74.54;101883.91;1701411;84;22631;-85
2022/05/08 03:05:47;;;;;;;14.23;9.10;;;;;;;8.34;74.59;101883.19;1664691;85;21092;-90
2022/05/08 03:08:15;;;;;;;14.15;9.48;;;;;;;8.35;74.61;101881.03;1689288;84;21091;-87
2022/05/08 03:13:36;;;;;;;16.73;9.73;;;;;;;8.41;74.60;101884.39;1685794;84;21085;-86
2022/05/08 03:16:03;;;;;;;;;;;;;;;8.45;74.54;101879.44;1677160;84;21825;-89
2022/05/08 03:18:30;;;;;;;11.93;9.35;;;;;;;8.49;74.52;101873.94;1661322;85;20281;-87
2022/05/08 03:20:58;;;;;;;14.63;9.13;;;;;;;8.55;74.48;101880.80;1672948;84;21086;-87
2022/05/08 03:23:25;;;;;;;14.53;8.93;;;;;;;8.60;74.49;101878.02;1691643;84;21105;-87
2022/05/08 03:25:52;;;;;;;15.58;8.65;;;;;;;8.70;74.48;101877.64;1687250;84;21145;-88
2022/05/08 03:28:19;;;;;;;13.15;9.00;;;;;;;8.76;74.51;101869.17;1678087;84;21808;-88
2022/05/08 03:30:46;;;;;;;17.12;8.95;;;;;;;8.93;74.53;101875.27;1684103;84;21070;-88
2022/05/08 03:33:17;;;;;;;13.98;8.73;;;;;;;9.11;74.53;101879.23;1676777;85;21083;-88
2022/05/08 03:35:43;;;;;;;13.00;8.88;;;;;;;9.36;74.51;101878.67;1674817;84;21579;-87
2022/05/08 03:38:10;;;;;;;15.35;8.68;;;;;;;9.76;74.60;101876.64;1671891;85;21572;-88
2022/05/08 03:40:38;;;;;;;13.75;8.38;;;;;;;10.20;74.34;101872.90;1674896;84;21793;-87
2022/05/08 03:43:13;;;;;;;16.45;8.73;;;;;;;10.69;74.04;101873.31;1691386;84;21115;-87
2022/05/08 03:45:44;;;;;;;17.45;9.08;;;;;;;11.26;73.67;101868.17;1659550;84;21081;-87
2022/05/08 03:48:11;;;;;;;13.60;9.05;;;;;;;11.96;73.15;101867.84;1686938;84;21082;-87
2022/05/08 03:50:44;;;;;;;16.80;9.05;;;;;;;12.69;72.24;101870.89;1705123;83;21060;-87
2022/05/08 03:53:12;;;;;;;15.60;7.85;;;;;;;13.30;71.22;101874.67;1731081;81;21874;-86
2022/05/08 03:55:42;;;;;;;17.00;8.25;;;;;;;13.75;70.06;101872.97;1715876;82;21285;-89
2022/05/08 03:58:09;;;;;;;10.40;6.92;;;;;;;14.13;69.36;101873.63;1711009;82;21336;-89
2022/05/08 04:00:41;;;;;;;13.98;6.65;;;;;;;14.70;68.64;101877.43;1744934;82;21619;-89
2022/05/08 04:03:06;;;;;;;10.05;6.50;;;;;;;15.39;67.63;101879.98;1718804;82;21046;-88
2022/05/08 04:05:32;;;;;;;10.78;6.03;;;;;;;15.73;66.19;101886.56;1726078;82;21760;-88
2022/05/08 04:07:59;;;;;;;12.30;6.90;;;;;;;16.26;66.16;101884.55;1712757;82;21036;-87
2022/05/08 04:10:26;;;;;;;10.00;6.25;;;;;;;16.97;64.91;101884.97;1724804;82;21058;-88
2022/05/08 04:12:53;;;;;;;11.25;6.50;;;;;;;17.61;63.93;101883.31;1727682;82;21435;-87
2022/05/08 04:18:07;;;;;;;11.83;5.70;;;;;;;18.32;61.14;101881.58;1719753;83;21760;-87
2022/05/08 04:20:34;;;;;;;8.48;5.62;;;;;;;18.85;61.36;101889.70;1677173;84;21069;-86
2022/05/08 04:25:46;;;;;;;7.80;5.10;;;;;;;21.57;59.34;101880.42;1701034;83;21050;-85
2022/05/08 04:28:13;;;;;;;10.95;5.85;;;;;;;22.96;58.19;101887.30;1698644;83;21598;-89
2022/05/08 04:30:39;;;;;;;9.78;4.95;;;;;;;24.07;56.44;101882.15;1706160;83;21771;-86
2022/05/08 04:33:07;;;;;;;7.72;4.37;;;;;;;25.84;52.73;101884.61;1705872;83;21130;-87
2022/05/08 04:35:35;;;;;;;6.67;4.85;;;;;;;25.84;52.73;101884.61;1718926;83;21082;-87
2022/05/08 04:38:02;;;;;;;7.00;4.37;;;;;;;26.73;51.43;101889.44;1707583;83;21055;-87
2022/05/08 04:40:29;;;;;;;8.45;4.47;;;;;;;27.39;49.75;101890.93;1711738;83;21113;-88
2022/05/08 04:42:55;;;;;;;7.45;4.33;;;;;;;27.99;48.28;101887.91;1681333;83;21232;-86
2022/05/08 04:45:22;;;;;;;8.58;4.58;;;;;;;28.58;46.96;101885.64;1680307;83;21082;-86
2022/05/08 04:47:49;;;;;;;6.87;4.20;;;;;;;29.10;45.78;101888.44;1713202;83;21117;-86
2022/05/08 04:50:16;;;;;;;9.78;4.40;;;;;;;29.58;44.43;101865.97;1709431;83;21070;-86
2022/05/08 04:52:42;;;;;;;11.15;4.22;;;;;;;30.00;43.09;101884.30;1692352;84;21083;-88
2022/05/08 04:55:09;;;;;;;8.60;4.20;;;;;;;30.27;41.99;101886.88;1712771;83;21759;-88
2022/05/08 04:57:37;;;;;;;10.20;4.08;;;;;;;30.50;40.79;101885.09;1720986;83;21058;-87
2022/05/08 05:00:06;;;;;;;7.58;4.10;;;;;;;30.16;39.78;101887.77;1695438;83;21098;-86
2022/05/08 05:02:33;;;;;;;7.90;3.83;;;;;;;30.23;39.35;101892.02;1693410;83;21041;-87
2022/05/08 05:05:00;;;;;;;7.70;4.05;;;;;;;30.17;38.15;101894.51;1713431;83;21054;-86
2022/05/08 05:07:28;;;;;;;10.00;4.42;;;;;;;29.91;37.28;101895.52;1697155;83;21812;-86
2022/05/08 05:09:54;;;;;;;8.73;4.37;;;;;;;29.60;36.95;101900.70;1717502;82;21054;-86
2022/05/08 05:12:21;;;;;;;6.22;4.08;;;;;;;28.83;36.34;101901.09;1699891;83;21145;-87
2022/05/08 05:14:48;;;;;;;8.05;4.03;;;;;;;28.52;36.35;101903.90;1707460;83;21075;-85
2022/05/08 05:17:15;;;;;;;8.00;3.92;;;;;;;28.57;36.39;101899.23;1695020;83;21105;-85
2022/05/08 05:19:49;;;;;;;12.88;4.22;;;;;;;29.03;36.31;101897.72;1707849;81;21794;-86
2022/05/08 05:22:16;;;;;;;10.08;4.40;;;;;;;29.70;35.86;101890.87;1731124;82;21071;-86
2022/05/08 05:24:46;;;;;;;8.45;4.37;;;;;;;30.23;35.02;101896.97;1723502;82;21126;-86
2022/05/08 05:27:11;;;;;;;8.95;3.60;;;;;;;30.58;34.54;101902.88;1728686;82;21090;-87
2022/05/08 05:29:42;;;;;;;9.60;4.00;;;;;;;30.85;33.85;101903.16;1729240;82;21102;-87
2022/05/08 05:32:09;;;;;;;8.30;4.08;;;;;;;30.62;32.52;101906.34;1731577;81;21779;-87
2022/05/08 05:34:36;;;;;;;10.98;4.10;;;;;;;28.76;31.94;101906.32;1725243;81;21143;-87
2022/05/08 05:37:03;;;;;;;7.42;3.42;;;;;;;26.65;32.17;101919.77;1720568;82;21059;-85
2022/05/08 05:39:30;;;;;;;11.10;3.90;;;;;;;24.75;32.68;101918.42;1729919;81;21046;-88
2022/05/08 05:41:57;;;;;;;9.70;3.27;;;;;;;23.23;33.67;101922.44;1726982;82;21074;-85
2022/05/08 05:44:24;;;;;;;7.92;3.47;;;;;;;22.20;34.46;101920.84;1737831;81;21732;-86
2022/05/08 05:49:38;;;;;;;8.78;3.42;;;;;;;20.27;35.68;101926.66;1732428;81;21094;-85
2022/05/08 05:52:07;;;;;;;8.95;2.90;;;;;;;19.40;36.46;101933.28;1725551;82;21154;-87
2022/05/08 05:54:35;;;;;;;9.73;3.37;;;;;;;18.79;37.04;101929.18;1732652;82;21156;-87
2022/05/08 05:57:02;;;;;;;12.58;3.67;;;;;;;18.33;37.49;101933.11;1735211;81;21770;-84
2022/05/08 05:59:29;;;;;;;13.58;3.62;;;;;;;17.84;37.93;101937.34;1736484;82;21083;-85
2022/05/08 06:01:56;;;;;;;11.00;3.30;;;;;;;17.32;38.30;101938.77;1733901;82;21114;-85
2022/05/08 06:04:23;;;;;;;8.63;2.95;;;;;;;17.01;38.88;101938.27;1739104;82;21110;-86
2022/05/08 06:06:49;;;;;;;10.78;4.58;;;;;;;16.81;39.44;101941.84;1736602;81;21074;-85
2022/05/08 06:09:20;;;;;;;13.20;3.87;;;;;;;16.59;39.58;101954.27;1730964;82;21600;-86
2022/05/08 06:11:46;;;;;;;9.88;3.75;;;;;;;16.25;39.96;101948.28;1728558;81;21096;-86
2022/05/08 06:14:13;;;;;;;9.55;3.72;;;;;;;16.02;40.40;101938.06;1735879;81;21631;-86
2022/05/08 06:16:41;;;;;;;11.75;4.08;;;;;;;15.88;40.85;101942.20;1734526;81;21086;-87
2022/05/08 06:19:12;;;;;;;9.95;3.85;;;;;;;15.77;41.00;101943.72;1737133;81;21588;-87
2022/05/08 06:21:39;;;;;;;10.10;3.70;;;;;;;15.61;41.25;101943.75;1748714;81;22580;-87
2022/05/08 06:24:06;;;;;;;12.68;3.77;;;;;;;15.44;41.51;101943.34;1729078;81;21201;-84
2022/05/08 06:26:33;;;;;;;13.00;4.20;;;;;;;15.24;41.74;101945.09;1746929;81;21074;-84
2022/05/08 06:29:01;;;;;;;11.80;3.60;;;;;;;15.12;42.06;101945.66;1742333;81;21030;-87
2022/05/08 06:31:28;;;;;;;8.33;3.65;;;;;;;15.02;42.32;101950.27;1756189;81;21615;-85
2022/05/08 06:33:55;;;;;;;11.57;3.72;;;;;;;14.91;42.60;101948.66;1745589;81;22417;-83
2022/05/08 06:36:22;;;;;;;10.20;3.60;;;;;;;14.84;42.68;101944.48;1750132;81;21068;-85
2022/05/08 06:38:49;;;;;;;12.43;3.85;;;;;;;14.78;42.98;101943.89;1750793;81;21073;-84
2022/05/08 06:41:16;;;;;;;19.17;3.87;;;;;;;14.77;43.12;101949.63;1748799;81;21089;-84
2022/05/08 06:43:44;;;;;;;10.90;3.58;;;;;;;14.83;43.35;101951.55;1739198;81;21101;-87
2022/05/08 06:46:13;;;;;;;14.35;3.72;;;;;;;14.81;43.22;101951.02;1749077;81;21089;-87
2022/05/08 06:48:40;;;;;;;10.45;3.22;;;;;;;14.80;43.14;101952.78;1748889;81;21603;-83
2022/05/08 06:51:16;;;;;;;8.88;3.40;;;;;;;14.80;43.08;101956.75;1748071;81;21109;-84
2022/05/08 06:53:37;;;;;;;15.98;3.70;;;;;;;14.74;43.08;101955.27;1745137;81;22556;-84
2022/05/08 06:56:05;;;;;;;13.08;3.77;;;;;;;14.71;42.90;101960.04;1751886;81;21070;-85
2022/05/08 07:01:35;;;;;;;9.20;3.00;;;;;;;14.65;43.05;101957.23;1715442;81;21124;-84
2022/05/08 07:04:03;;;;;;;11.63;3.33;;;;;;;14.75;43.08;101958.38;1741893;81;25439;-85
2022/05/08 07:06:35;;;;;;;10.82;3.58;;;;;;;14.82;43.07;101966.08;1746762;81;21145;-84
2022/05/08 07:09:02;;;;;;;9.93;3.22;;;;;;;14.85;42.92;101965.73;1751023;81;21077;-85
2022/05/08 07:11:30;;;;;;;7.67;3.30;;;;;;;14.83;42.49;101968.78;1744834;81;21843;-83
2022/05/08 07:13:58;;;;;;;10.03;3.83;;;;;;;14.71;42.48;101948.55;1748597;81;21552;-84
2022/05/08 07:16:25;;;;;;;9.33;2.85;;;;;;;14.79;42.47;101966.91;1748499;81;21046;-83
2022/05/08 07:18:52;;;;;;;7.87;2.75;;;;;;;14.80;42.19;101960.73;1749543;81;21301;-83
2022/05/08 07:21:19;;;;;;;9.60;3.20;;;;;;;14.75;41.37;101975.60;1734900;81;21129;-85
2022/05/08 07:23:47;;;;;;;8.98;3.12;;;;;;;14.71;41.68;101965.78;1746557;81;21806;-82
2022/05/08 07:26:15;;;;;;;10.63;2.83;;;;;;;14.61;41.59;101959.33;1728884;81;21046;-83
2022/05/08 07:28:42;;;;;;;9.30;2.65;;;;;;;14.75;41.66;101972.55;1664288;83;21910;-83
2022/05/08 07:31:09;;;;;;;9.58;3.08;;;;;;;14.82;41.43;101972.70;1662044;84;21118;-82
2022/05/08 07:33:39;;;;;;;13.38;3.27;;;;;;;14.86;41.51;101967.52;1676829;84;21053;-83
2022/05/08 07:36:12;;;;;;;7.40;2.90;;;;;;;15.00;41.53;101970.95;1676604;84;21891;-82
2022/05/08 07:38:45;;;;;;;9.20;2.90;;;;;;;15.09;41.42;101968.55;1687420;84;21102;-87
2022/05/08 07:41:14;;;;;;;11.35;2.83;;;;;;;15.18;41.34;101974.09;1686668;84;21136;-85
2022/05/08 07:43:47;;;;;;;9.03;3.00;;;;;;;15.28;41.18;101978.79;1679421;84;21588;-88
2022/05/08 07:46:14;;;;;;;9.18;3.33;;;;;;;15.30;41.07;101979.72;1660804;84;21235;-82
2022/05/08 07:48:41;;;;;;;7.17;2.58;;;;;;;15.23;41.03;101988.38;1688848;84;21790;-82
2022/05/08 07:51:08;;;;;;;8.78;2.80;;;;;;;15.10;40.42;101992.45;1686589;84;21117;-82
2022/05/08 07:53:35;;;;;;;7.92;2.27;;;;;;;14.95;40.31;101986.76;1684762;83;21060;-82
2022/05/08 07:56:01;;;;;;;9.00;2.55;;;;;;;14.90;40.46;101990.63;1702292;83;21098;-83
2022/05/08 07:58:29;;;;;;;6.95;2.52;;;;;;;14.91;40.22;101991.52;1676897;84;21778;-84
2022/05/08 08:00:57;;;;;;;6.92;3.52;;;;;;;14.89;40.30;101996.77;1684404;83;21772;-83
2022/05/08 08:03:25;;;;;;;10.18;2.85;;;;;;;14.85;39.79;102010.80;1674733;84;21071;-81
2022/05/08 08:05:52;;;;;;;9.08;2.87;;;;;;;14.75;39.32;102012.30;1689947;84;21751;-82
2022/05/08 08:08:25;;;;;;;7.50;2.62;;;;;;;14.65;38.95;102011.99;1691810;84;21082;-84
2022/05/08 08:10:56;;;;;;;6.58;2.83;;;;;;;14.62;39.40;102008.84;1690906;84;21116;-85
2022/05/08 08:13:26;;;;;;;7.22;1.90;;;;;;;14.64;39.36;102011.10;1684037;84;21062;-85
2022/05/08 08:15:53;;;;;;;5.70;2.20;;;;;;;14.66;39.45;102013.77;1695699;84;21089;-83
2022/05/08 08:18:19;;;;;;;4.75;2.50;;;;;;;14.71;39.40;102015.70;1697077;84;21105;-84
2022/05/08 08:20:46;;;;;;;4.25;2.15;;;;;;;14.72;39.46;102022.80;1690358;84;21750;-84
2022/05/08 08:23:13;;;;;;;6.12;2.08;;;;;;;14.71;39.66;102018.34;1693825;84;21973;-84
2022/05/08 08:25:40;;;;;;;8.23;2.80;;;;;;;14.76;39.45;102028.66;1656910;84;21776;-84
2022/05/08 08:28:06;;;;;;;4.05;2.15;;;;;;;14.70;38.93;102035.12;1728851;81;21069;-84
2022/05/08 08:30:34;;;;;;;6.70;2.15;;;;;;;14.63;39.13;102024.30;1725220;81;21616;-85
2022/05/08 08:33:00;;;;;;;7.58;2.20;;;;;;;14.67;38.81;102039.00;1734210;81;21047;-82
2022/05/08 08:35:27;;;;;;;7.83;2.30;;;;;;;14.65;38.54;102036.73;1730535;82;21062;-84
2022/05/08 08:37:54;;;;;;;4.70;2.00;;;;;;;14.65;38.89;102033.19;1729658;82;22633;-87
2022/05/08 08:40:21;;;;;;;6.70;2.75;;;;;;;14.69;38.67;102035.96;1721431;82;21073;-85
2022/05/08 08:42:49;;;;;;;4.75;1.90;;;;;;;14.74;38.49;102034.34;1734756;82;21094;-87
2022/05/08 08:48:09;;;;;;;4.33;1.98;;;;;;;14.89;38.60;102044.92;1727920;82;21094;-84
2022/05/08 08:50:36;;;;;;;7.37;2.30;;;;;;;14.92;37.50;102041.94;1725771;81;21771;-82
2022/05/08 08:53:10;;;;;;;9.28;2.42;;;;;;;14.96;37.57;102044.25;1690398;83;21126;-87
2022/05/08 08:55:39;;;;;;;4.45;2.27;;;;;;;14.99;37.75;102046.07;1735840;82;21108;-83
2022/05/08 08:58:08;;;;;;;6.42;1.95;;;;;;;15.06;37.94;102047.61;1700679;82;21078;-87
2022/05/08 09:00:35;;;;;;;8.08;2.35;;;;;;;15.08;37.11;102050.30;1726117;81;21537;-91
2022/05/08 09:03:02;;;;;;;7.53;2.20;;;;;;;15.04;37.21;102053.73;1735614;81;21788;-88
2022/05/08 09:05:29;;;;;;;9.70;2.45;;;;;;;15.06;36.85;102048.93;1695716;82;21412;-85
2022/05/08 09:07:58;;;;;;;4.80;1.92;;;;;;;15.09;36.94;102049.42;1725924;81;21446;-91
2022/05/08 09:10:56;;;;;;;;;;;;;;;;;;;;;
2022/05/08 09:13:06;;;;;;;4.72;1.80;;;;;;;15.08;37.11;102052.95;1699403;82;21098;-89
2022/05/08 09:15:39;;;;;;;9.25;2.70;;;;;;;15.15;37.10;102053.59;1726135;82;21156;-85
2022/05/08 09:18:10;;;;;;;5.60;2.42;;;;;;;15.21;37.03;102054.19;1719409;82;21070;-83
2022/05/08 09:20:42;;;;;;;6.10;2.25;;;;;;;15.30;36.99;102057.09;1729527;82;21094;-86
2022/05/08 09:23:21;;;;;;;5.05;2.27;;;;;;;15.37;37.02;102055.04;1737793;81;21220;-85
2022/05/08 09:26:00;;;;;;;8.30;2.60;;;;;;;15.42;36.22;102060.48;1741395;81;21121;-87
2022/05/08 09:28:44;;;;;;;8.68;2.40;;;;;;;15.44;36.44;102062.75;1731486;81;21774;-87
2022/05/08 09:31:18;;;;;;;4.97;2.27;;;;;;;15.47;36.37;102063.73;1715404;81;21105;-88
2022/05/08 09:33:51;;;;;;;17.57;7.12;;;;;;;15.44;36.69;102057.00;1736694;81;21077;-91
2022/05/08 09:36:25;;;;;;;5.97;2.77;;;;;;;15.48;36.67;102065.94;1731317;81;21190;-87
2022/05/08 09:38:57;;;;;;;6.33;3.50;;;;;;;15.46;36.53;102067.66;1740934;81;21090;-88
2022/05/08 09:41:30;;;;;;;7.50;3.60;;;;;;;15.45;36.72;102061.91;1734670;81;21769;-90
2022/05/08 09:44:14;;;;;;;11.48;3.47;;;;;;;15.46;36.70;102065.01;1736244;81;21070;-88
2022/05/08 09:46:45;;;;;;;;;;;;;;;15.51;37.04;102069.58;1740867;81;21078;-88
2022/05/08 09:49:12;;;;;;;7.08;2.58;;;;;;;15.61;37.06;102062.73;1742621;81;20183;-91
2022/05/08 09:51:41;;;;;;;6.25;3.10;;;;;;;15.62;37.17;102069.86;1726920;81;21071;-86
2022/05/08 09:54:09;;;;;;;9.20;2.12;;;;;;;15.59;37.37;102056.94;1740024;81;21782;-89
2022/05/08 09:56:36;;;;;;;6.22;2.50;;;;;;;15.61;37.75;102064.06;1707278;81;21102;-88
2022/05/08 09:59:10;;;;;;;6.22;3.15;;;;;;;15.68;37.72;102080.63;1740320;81;21062;-88
2022/05/08 10:01:42;;;;;;;;;;;;;;;15.67;37.72;102068.63;1724673;81;21070;-88
2022/05/08 10:04:13;;;;;;;6.42;3.00;;;;;;;15.74;37.83;102071.51;1716849;81;20186;-86
2022/05/08 10:06:46;;;;;;;9.75;2.80;;;;;;;15.80;37.78;102065.89;1743657;81;22590;-87
2022/05/08 10:14:39;;;;;;;4.90;2.17;;;;;;;15.91;37.06;102077.67;1743973;81;21142;-87
2022/05/08 10:17:07;;;;;;;3.55;2.10;;;;;;;15.89;37.03;102074.97;1726101;81;21116;-85
2022/05/08 10:19:43;;;;;;;6.03;1.98;;;;;;;15.94;36.91;102077.31;1728287;81;21781;-85
2022/05/08 10:22:10;;;;;;;6.22;2.22;;;;;;;15.99;36.93;102082.76;1740117;81;21102;-89
2022/05/08 10:24:51;;;;;;;4.45;2.00;;;;;;;16.01;36.57;102073.06;1745101;81;21102;-89
2022/05/08 10:27:26;;;;;;;3.60;1.57;;;;;;;16.04;36.51;102062.94;1732371;81;21140;-85
2022/05/08 10:29:58;;;;;;;7.85;4.78;;;;;;;16.05;36.32;102063.41;1717416;81;21178;-87
2022/05/08 10:32:34;;;;;;;9.95;5.08;;;;;;;16.11;36.77;102071.08;1731686;81;21850;-86
2022/05/08 10:35:18;;;;;;;5.95;2.50;;;;;;;16.19;36.54;102077.89;1753186;81;21050;-90
2022/05/08 10:38:01;;;;;;;4.08;2.20;;;;;;;16.23;36.54;102072.22;1742672;81;21117;-85
2022/05/08 10:40:31;;;;;;;5.90;3.70;;;;;;;16.31;36.00;102074.20;1740661;81;21118;-86
2022/05/08 10:43:14;;;;;;;8.70;3.72;;;;;;;16.39;36.06;102081.45;1731156;81;21097;-87
2022/05/08 10:45:43;;;;;;;9.13;3.33;;;;;;;16.51;36.39;102070.63;1718755;81;21731;-85
2022/05/08 10:48:13;;;;;;;9.10;3.37;;;;;;;16.69;36.80;102080.77;1703246;81;21090;-85
2022/05/08 10:50:46;;;;;;;6.40;2.20;;;;;;;16.83;36.74;102074.44;1717118;81;21100;-84
2022/05/08 10:53:28;;;;;;;6.47;2.35;;;;;;;17.01;36.79;102086.34;1735783;81;21058;-85
2022/05/08 10:56:05;;;;;;;11.15;3.58;;;;;;;17.13;36.75;102074.58;1747688;81;21398;-84
2022/05/08 10:58:43;;;;;;;8.33;2.75;;;;;;;17.34;37.55;102107.79;1746886;81;21795;-86
2022/05/08 11:01:11;;;;;;;17.60;3.72;;;;;;;17.28;39.19;102091.27;1742700;81;21738;-88
2022/05/08 11:03:38;;;;;;;10.38;2.87;;;;;;;17.15;40.05;102102.55;1738834;81;21181;-86
2022/05/08 11:06:05;;;;;;;10.10;3.12;;;;;;;17.01;40.82;102107.61;1736082;81;21097;-84
2022/05/08 11:08:34;;;;;;;13.35;3.42;;;;;;;16.70;41.29;102107.84;1747577;81;21105;-86
2022/05/08 11:11:12;;;;;;;13.95;3.75;;;;;;;16.40;42.20;102105.38;1715452;81;22705;-89
2022/05/08 11:13:44;;;;;;;13.28;4.28;;;;;;;16.12;43.40;102123.36;1739583;81;21078;-84
2022/05/08 11:16:33;;;;;;;13.95;4.37;;;;;;;15.87;44.28;102129.80;1736671;81;21874;-90
2022/05/08 11:19:00;;;;;;;12.20;3.85;;;;;;;15.65;45.41;102123.44;1739904;81;21109;-86
2022/05/08 11:21:27;;;;;;;14.25;3.72;;;;;;;15.39;45.31;102128.97;1733208;81;21614;-89
2022/05/08 11:23:59;;;;;;;12.45;3.87;;;;;;;15.14;46.25;102118.98;1706277;83;22400;-88
2022/05/08 11:26:30;;;;;;;17.73;4.47;;;;;;;14.99;46.79;102118.55;1669835;84;21091;-90
2022/05/08 11:28:58;;;;;;;18.17;4.10;;;;;;;14.90;47.27;102113.91;1646562;85;21103;-89
2022/05/08 11:31:26;;;;;;;15.68;3.90;;;;;;;14.94;47.87;102118.84;1657104;85;21090;-85
2022/05/08 11:36:39;;;;;;;17.30;4.10;;;;;;;14.93;48.90;102114.41;1650488;86;21893;-82
2022/05/08 11:39:19;;;;;;;15.83;4.12;;;;;;;15.04;48.95;102112.07;1648785;85;21625;-88
2022/05/08 11:41:49;;;;;;;11.53;3.87;;;;;;;15.12;48.77;102110.52;1647507;85;21377;-86
2022/05/08 11:44:21;;;;;;;18.87;4.78;;;;;;;15.25;48.63;102106.46;1650948;85;21164;-86
2022/05/08 11:46:58;;;;;;;12.55;4.05;;;;;;;15.35;48.97;102116.05;1623973;85;21146;-86
2022/05/08 11:49:30;;;;;;;13.25;4.55;;;;;;;15.46;49.16;102117.64;1660959;85;21953;-86
2022/05/08 11:52:04;;;;;;;15.93;4.55;;;;;;;15.61;48.73;102129.53;1659212;85;21098;-86
2022/05/08 11:54:34;;;;;;;12.68;4.08;;;;;;;15.49;48.93;102140.29;1665105;85;21093;-84
2022/05/08 11:57:25;;;;;;;11.57;3.98;;;;;;;15.38;48.81;102141.75;1653577;85;21319;-84
2022/05/08 12:00:07;;;;;;;9.68;3.62;;;;;;;15.32;49.13;102128.33;1617902;85;21170;-86
2022/05/08 12:02:47;;;;;;;12.25;4.45;;;;;;;15.23;49.03;102106.41;1651804;85;21890;-83